createdAt,value
2023-02-24T00:00:53.031Z,10.29
2023-02-24T00:02:00.915Z,10.39
2023-02-24T00:03:06.364Z,10.36
2023-02-24T00:04:10.509Z,10.23
2023-02-24T00:05:12.891Z,10.20
2023-02-24T00:06:14.377Z,10.26
2023-02-24T00:07:17.375Z,10.24
2023-02-24T00:08:18.942Z,10.22
2023-02-24T00:09:23.255Z,10.41
2023-02-24T00:10:24.741Z,10.52
2023-02-24T00:11:28.081Z,10.55
2023-02-24T00:12:29.582Z,10.52
2023-02-24T00:13:32.331Z,10.63
2023-02-24T00:14:36.726Z,10.60
2023-02-24T00:15:40.487Z,10.58
2023-02-24T00:16:42.401Z,10.65
2023-02-24T00:17:45.731Z,10.69
2023-02-24T00:18:47.293Z,10.60
2023-02-24T00:19:51.923Z,10.59
2023-02-24T00:20:56.618Z,10.50
2023-02-24T00:21:59.818Z,10.48
2023-02-24T00:23:01.341Z,10.15
2023-02-24T00:24:03.937Z,10.10
2023-02-24T00:25:06.402Z,10.12
2023-02-24T00:26:11.078Z,10.05
2023-02-24T00:27:12.666Z,10.13
2023-02-24T00:28:15.224Z,10.05
2023-02-24T00:29:16.701Z,9.54
2023-02-24T00:30:21.414Z,9.62
2023-02-24T00:31:24.930Z,9.75
2023-02-24T00:32:27.763Z,9.59
2023-02-24T00:33:30.827Z,9.33
2023-02-24T00:34:35.427Z,9.23
2023-02-24T00:35:36.916Z,9.38
2023-02-24T00:36:40.299Z,9.38
2023-02-24T00:37:41.833Z,8.82
2023-02-24T00:38:47.026Z,8.49
2023-02-24T00:39:48.564Z,8.66
2023-02-24T00:40:51.017Z,8.89
2023-02-24T00:41:52.608Z,9.02
2023-02-24T00:42:55.075Z,9.10
2023-02-24T00:43:59.166Z,9.20
2023-02-24T00:45:07.530Z,9.52
2023-02-24T00:46:11.397Z,9.68
2023-02-24T00:47:17.593Z,9.62
2023-02-24T00:48:19.423Z,9.66
2023-02-24T00:49:24.440Z,9.67
2023-02-24T00:50:26.167Z,9.70
2023-02-24T00:51:29.099Z,9.56
2023-02-24T00:52:30.903Z,9.67
2023-02-24T00:53:33.340Z,9.80
2023-02-24T00:54:36.093Z,9.92
2023-02-24T00:55:38.514Z,9.96
2023-02-24T00:56:40.389Z,9.94
2023-02-24T00:57:42.854Z,9.77
2023-02-24T00:58:44.972Z,9.85
2023-02-24T00:59:48.332Z,9.79
2023-02-24T01:00:49.794Z,9.79
2023-02-24T01:01:54.781Z,9.53
2023-02-24T01:02:59.384Z,9.54
2023-02-24T01:04:06.305Z,9.73
2023-02-24T01:05:09.450Z,9.78
2023-02-24T01:06:13.009Z,9.66
2023-02-24T01:07:14.576Z,9.46
2023-02-24T01:08:21.397Z,9.52
2023-02-24T01:09:22.895Z,9.40
2023-02-24T01:10:26.951Z,9.55
2023-02-24T01:11:51.913Z,9.46
2023-02-24T01:12:54.022Z,9.56
2023-02-24T01:13:55.715Z,9.29
2023-02-24T01:14:58.347Z,9.02
2023-02-24T01:16:02.247Z,9.11
2023-02-24T01:17:05.991Z,9.14
2023-02-24T01:18:10.961Z,9.30
2023-02-24T01:19:13.475Z,9.43
2023-02-24T01:20:16.465Z,9.50
2023-02-24T01:21:21.212Z,9.51
2023-02-24T01:22:23.739Z,9.68
2023-02-24T01:23:26.895Z,9.59
2023-02-24T01:24:28.911Z,9.27
2023-02-24T01:25:31.444Z,9.35
2023-02-24T01:26:32.978Z,9.17
2023-02-24T01:27:37.006Z,9.23
2023-02-24T01:28:38.641Z,9.22
2023-02-24T01:29:43.431Z,9.31
2023-02-24T01:30:44.920Z,9.33
2023-02-24T01:31:49.519Z,9.39
2023-02-24T01:32:51.665Z,9.39
2023-02-24T01:33:56.003Z,9.40
2023-02-24T01:34:57.715Z,9.28
2023-02-24T01:36:09.694Z,9.37
2023-02-24T01:37:16.251Z,9.49
2023-02-24T01:38:25.916Z,9.53
2023-02-24T01:39:28.101Z,9.47
2023-02-24T01:40:30.638Z,9.52
2023-02-24T01:41:32.493Z,9.42
2023-02-24T01:42:33.991Z,9.43
2023-02-24T01:43:58.700Z,9.61
2023-02-24T01:45:16.908Z,9.74
2023-02-24T01:46:23.406Z,9.74
2023-02-24T01:47:31.083Z,9.62
2023-02-24T01:48:33.618Z,9.66
2023-02-24T01:49:41.067Z,9.74
2023-02-24T01:50:43.664Z,9.83
2023-02-24T01:51:49.705Z,9.81
2023-02-24T01:52:56.117Z,9.87
2023-02-24T01:53:57.762Z,9.85
2023-02-24T01:55:05.479Z,9.86
2023-02-24T01:56:07.273Z,9.69
2023-02-24T01:57:10.869Z,9.73
2023-02-24T01:58:19.989Z,9.68
2023-02-24T01:59:23.883Z,9.80
2023-02-24T02:00:37.377Z,9.73
2023-02-24T02:01:42.974Z,9.65
2023-02-24T02:02:48.116Z,9.71
2023-02-24T02:03:52.223Z,9.64
2023-02-24T02:04:58.213Z,9.74
2023-02-24T02:06:02.830Z,9.77
2023-02-24T02:07:04.949Z,9.86
2023-02-24T02:08:09.661Z,9.80
2023-02-24T02:09:15.291Z,9.76
2023-02-24T02:10:18.452Z,9.78
2023-02-24T02:11:20.538Z,9.74
2023-02-24T02:12:25.216Z,9.87
2023-02-24T02:13:29.237Z,9.76
2023-02-24T02:14:32.845Z,9.59
2023-02-24T02:15:40.525Z,9.76
2023-02-24T02:17:07.144Z,9.67
2023-02-24T02:18:17.747Z,9.78
2023-02-24T02:19:44.539Z,9.76
2023-02-24T02:21:04.869Z,9.48
2023-02-24T02:22:26.938Z,8.88
2023-02-24T02:23:57.940Z,8.27
2023-02-24T02:25:09.402Z,7.81
2023-02-24T02:26:32.568Z,7.58
2023-02-24T02:27:51.364Z,6.79
2023-02-24T02:29:22.063Z,6.97
2023-02-24T02:30:44.481Z,6.58
2023-02-24T02:32:08.735Z,6.25
2023-02-24T02:33:47.899Z,6.47
2023-02-24T02:34:55.344Z,6.59
2023-02-24T02:36:06.893Z,6.73
2023-02-24T02:37:14.634Z,6.92
2023-02-24T02:38:25.929Z,6.73
2023-02-24T02:39:34.553Z,6.70
2023-02-24T02:40:41.275Z,6.19
2023-02-24T02:41:54.156Z,6.28
2023-02-24T02:43:00.644Z,6.55
2023-02-24T02:44:09.518Z,6.60
2023-02-24T02:45:19.163Z,6.44
2023-02-24T02:46:34.733Z,6.45
2023-02-24T02:47:41.249Z,6.74
2023-02-24T02:48:50.762Z,6.79
2023-02-24T02:49:58.391Z,6.75
2023-02-24T02:51:07.100Z,6.71
2023-02-24T02:52:15.652Z,6.43
2023-02-24T02:53:25.282Z,5.94
2023-02-24T02:54:31.137Z,5.84
2023-02-24T02:55:39.549Z,6.12
2023-02-24T02:56:46.923Z,6.30
2023-02-24T02:57:53.253Z,6.36
2023-02-24T02:58:56.670Z,6.26
2023-02-24T03:00:10.618Z,5.99
2023-02-24T03:01:17.405Z,5.95
2023-02-24T03:02:28.048Z,6.06
2023-02-24T03:03:32.213Z,6.21
2023-02-24T03:04:36.243Z,6.18
2023-02-24T03:05:46.839Z,5.89
2023-02-24T03:06:53.220Z,5.85
2023-02-24T03:07:56.941Z,6.12
2023-02-24T03:09:11.310Z,6.23
2023-02-24T03:10:20.895Z,6.39
2023-02-24T03:11:24.826Z,6.51
2023-02-24T03:12:30.130Z,6.62
2023-02-24T03:13:37.386Z,6.70
2023-02-24T03:14:43.055Z,6.78
2023-02-24T03:15:47.525Z,6.76
2023-02-24T03:16:50.752Z,6.82
2023-02-24T03:17:57.067Z,6.87
2023-02-24T03:19:03.737Z,6.82
2023-02-24T03:20:16.073Z,6.87
2023-02-24T03:21:25.944Z,6.69
2023-02-24T03:22:35.062Z,6.07
2023-02-24T03:23:45.988Z,6.07
2023-02-24T03:24:47.616Z,6.12
2023-02-24T03:25:58.911Z,6.31
2023-02-24T03:27:06.880Z,6.26
2023-02-24T03:28:16.282Z,6.34
2023-02-24T03:29:23.846Z,6.30
2023-02-24T03:30:31.200Z,6.20
2023-02-24T03:31:40.917Z,5.83
2023-02-24T03:32:51.427Z,5.96
2023-02-24T03:34:01.384Z,5.88
2023-02-24T03:35:13.691Z,6.08
2023-02-24T03:36:16.142Z,5.98
2023-02-24T03:37:25.539Z,5.77
2023-02-24T03:38:30.499Z,5.88
2023-02-24T03:39:32.668Z,5.98
2023-02-24T03:40:36.250Z,6.13
2023-02-24T03:41:46.155Z,6.14
2023-02-24T03:42:50.395Z,6.15
2023-02-24T03:43:55.318Z,6.15
2023-02-24T03:44:58.454Z,6.43
2023-02-24T03:46:01.764Z,6.67
2023-02-24T03:47:03.791Z,6.71
2023-02-24T03:48:07.764Z,6.66
2023-02-24T03:49:17.078Z,6.68
2023-02-24T03:50:22.861Z,6.80
2023-02-24T03:51:24.410Z,6.83
2023-02-24T03:52:35.824Z,7.08
2023-02-24T03:53:48.446Z,7.19
2023-02-24T03:55:06.191Z,7.30
2023-02-24T03:56:22.542Z,6.94
2023-02-24T03:57:34.649Z,6.83
2023-02-24T03:58:47.595Z,6.55
2023-02-24T03:59:57.379Z,6.67
2023-02-24T04:01:07.725Z,6.75
2023-02-24T04:02:19.369Z,6.94
2023-02-24T04:03:29.094Z,6.67
2023-02-24T04:04:37.905Z,6.38
2023-02-24T04:05:47.603Z,6.43
2023-02-24T04:06:56.548Z,6.08
2023-02-24T04:08:01.318Z,5.70
2023-02-24T04:09:13.165Z,5.78
2023-02-24T04:10:22.214Z,6.02
2023-02-24T04:11:30.345Z,5.94
2023-02-24T04:12:38.214Z,6.14
2023-02-24T04:13:47.227Z,6.34
2023-02-24T04:14:54.547Z,6.52
2023-02-24T04:16:02.889Z,6.57
2023-02-24T04:17:13.331Z,6.63
2023-02-24T04:18:19.864Z,6.81
2023-02-24T04:19:24.102Z,6.88
2023-02-24T04:20:32.230Z,6.84
2023-02-24T04:21:38.395Z,6.96
2023-02-24T04:22:44.717Z,6.95
2023-02-24T04:23:47.710Z,6.94
2023-02-24T04:24:53.241Z,6.98
2023-02-24T04:25:56.216Z,6.98
2023-02-24T04:27:01.697Z,6.95
2023-02-24T04:28:07.936Z,6.84
2023-02-24T04:29:17.404Z,6.51
2023-02-24T04:30:21.009Z,6.47
2023-02-24T04:31:25.685Z,6.22
2023-02-24T04:32:31.508Z,6.06
2023-02-24T04:33:33.323Z,6.11
2023-02-24T04:34:36.048Z,6.25
2023-02-24T04:35:37.960Z,6.23
2023-02-24T04:36:41.786Z,6.30
2023-02-24T04:37:44.723Z,6.41
2023-02-24T04:38:47.317Z,6.24
2023-02-24T04:39:50.775Z,6.19
2023-02-24T04:40:53.247Z,6.11
2023-02-24T04:41:54.919Z,6.29
2023-02-24T04:42:57.503Z,6.31
2023-02-24T04:43:59.227Z,6.33
2023-02-24T04:45:01.685Z,6.36
2023-02-24T04:46:07.945Z,6.34
2023-02-24T04:47:12.072Z,6.28
2023-02-24T04:48:13.927Z,6.57
2023-02-24T04:49:18.007Z,6.81
2023-02-24T04:50:24.047Z,6.84
2023-02-24T04:51:26.592Z,6.77
2023-02-24T04:52:29.402Z,6.54
2023-02-24T04:53:31.985Z,6.42
2023-02-24T04:54:34.819Z,6.23
2023-02-24T04:55:40.436Z,6.07
2023-02-24T04:56:42.025Z,6.27
2023-02-24T04:57:45.959Z,6.31
2023-02-24T04:58:47.409Z,6.60
2023-02-24T04:59:49.842Z,6.79
2023-02-24T05:00:52.730Z,6.82
2023-02-24T05:01:55.500Z,6.88
2023-02-24T05:02:57.023Z,6.86
2023-02-24T05:04:00.169Z,6.96
2023-02-24T05:05:02.264Z,6.87
2023-02-24T05:06:06.376Z,6.88
2023-02-24T05:07:07.927Z,6.94
2023-02-24T05:08:12.266Z,7.06
2023-02-24T05:09:17.817Z,7.19
2023-02-24T05:10:20.632Z,7.13
2023-02-24T05:11:22.421Z,7.18
2023-02-24T05:12:25.069Z,7.21
2023-02-24T05:13:31.672Z,6.69
2023-02-24T05:14:34.622Z,5.95
2023-02-24T05:15:40.441Z,6.33
2023-02-24T05:16:44.174Z,6.39
2023-02-24T05:17:45.762Z,6.58
2023-02-24T05:18:48.201Z,6.72
2023-02-24T05:20:19.758Z,6.86
2023-02-24T05:21:36.239Z,6.96
2023-02-24T05:22:37.755Z,6.85
2023-02-24T05:23:44.817Z,6.91
2023-02-24T05:24:47.951Z,6.98
2023-02-24T05:25:54.868Z,6.84
2023-02-24T05:26:59.368Z,6.91
2023-02-24T05:28:03.948Z,6.88
2023-02-24T05:29:07.209Z,6.86
2023-02-24T05:30:10.076Z,6.90
2023-02-24T05:31:15.548Z,6.97
2023-02-24T05:32:17.452Z,7.10
2023-02-24T05:33:21.487Z,6.90
2023-02-24T05:34:24.195Z,6.92
2023-02-24T05:35:27.206Z,6.82
2023-02-24T05:36:32.095Z,6.94
2023-02-24T05:37:38.820Z,6.98
2023-02-24T05:38:41.824Z,7.02
2023-02-24T05:39:44.224Z,7.08
2023-02-24T05:40:47.548Z,6.79
2023-02-24T05:41:54.521Z,6.82
2023-02-24T05:42:58.149Z,6.69
2023-02-24T05:44:04.707Z,6.61
2023-02-24T05:45:07.941Z,6.65
2023-02-24T05:46:10.636Z,6.67
2023-02-24T05:47:12.115Z,6.79
2023-02-24T05:48:15.451Z,6.63
2023-02-24T05:49:23.180Z,6.75
2023-02-24T05:50:26.483Z,6.63
2023-02-24T05:51:35.104Z,6.51
2023-02-24T05:52:37.806Z,6.57
2023-02-24T05:53:52.311Z,6.68
2023-02-24T05:54:55.103Z,6.40
2023-02-24T05:56:00.577Z,6.19
2023-02-24T05:57:05.633Z,6.22
2023-02-24T05:58:07.268Z,6.18
2023-02-24T05:59:10.969Z,6.38
2023-02-24T06:00:16.241Z,6.19
2023-02-24T06:01:19.357Z,6.13
2023-02-24T06:02:27.892Z,6.33
2023-02-24T06:03:31.045Z,6.30
2023-02-24T06:04:40.229Z,6.24
2023-02-24T06:05:42.555Z,6.46
2023-02-24T06:06:45.323Z,6.44
2023-02-24T06:07:47.548Z,6.56
2023-02-24T06:08:51.989Z,6.64
2023-02-24T06:09:56.528Z,6.83
2023-02-24T06:10:59.341Z,6.86
2023-02-24T06:12:00.980Z,6.98
2023-02-24T06:13:04.181Z,6.91
2023-02-24T06:14:07.122Z,6.71
2023-02-24T06:15:10.766Z,6.37
2023-02-24T06:16:13.426Z,6.28
2023-02-24T06:17:18.709Z,6.25
2023-02-24T06:18:21.718Z,6.42
2023-02-24T06:19:25.385Z,6.65
2023-02-24T06:20:27.810Z,6.69
2023-02-24T06:21:30.245Z,6.67
2023-02-24T06:22:33.625Z,6.34
2023-02-24T06:23:36.064Z,6.55
2023-02-24T06:24:39.378Z,6.69
2023-02-24T06:25:42.346Z,6.62
2023-02-24T06:26:44.522Z,6.79
2023-02-24T06:27:53.079Z,6.78
2023-02-24T06:28:54.634Z,6.77
2023-02-24T06:29:57.592Z,6.89
2023-02-24T06:31:03.223Z,6.70
2023-02-24T06:32:08.643Z,6.82
2023-02-24T06:33:10.631Z,6.70
2023-02-24T06:34:14.803Z,6.47
2023-02-24T06:35:16.729Z,6.40
2023-02-24T06:36:19.236Z,6.45
2023-02-24T06:37:20.950Z,6.64
2023-02-24T06:38:23.352Z,6.79
2023-02-24T06:39:24.813Z,6.62
2023-02-24T06:40:29.167Z,5.98
2023-02-24T06:41:30.674Z,5.51
2023-02-24T06:42:33.140Z,5.56
2023-02-24T06:43:34.733Z,5.98
2023-02-24T06:44:38.982Z,6.21
2023-02-24T06:45:41.571Z,6.18
2023-02-24T06:46:43.281Z,5.76
2023-02-24T06:47:48.870Z,5.54
2023-02-24T06:48:50.367Z,5.41
2023-02-24T06:49:53.523Z,5.45
2023-02-24T06:50:55.310Z,5.75
2023-02-24T06:51:57.922Z,5.65
2023-02-24T06:53:00.714Z,5.87
2023-02-24T06:54:03.309Z,6.00
2023-02-24T06:55:05.701Z,5.60
2023-02-24T06:56:14.754Z,5.94
2023-02-24T06:57:16.617Z,6.30
2023-02-24T06:58:23.696Z,6.44
2023-02-24T06:59:28.557Z,6.57
2023-02-24T07:00:39.567Z,6.65
2023-02-24T07:01:45.326Z,6.74
2023-02-24T07:02:48.306Z,6.66
2023-02-24T07:04:17.637Z,6.70
2023-02-24T07:05:24.080Z,6.15
2023-02-24T07:06:25.760Z,6.24
2023-02-24T07:07:30.924Z,6.22
2023-02-24T07:08:32.520Z,6.17
2023-02-24T07:09:35.524Z,5.92
2023-02-24T07:10:37.117Z,6.18
2023-02-24T07:11:44.075Z,6.26
2023-02-24T07:12:46.578Z,6.41
2023-02-24T07:13:49.846Z,6.53
2023-02-24T07:14:51.385Z,6.56
2023-02-24T07:15:54.826Z,6.62
2023-02-24T07:16:58.291Z,6.62
2023-02-24T07:17:59.879Z,6.71
2023-02-24T07:19:09.565Z,6.71
2023-02-24T07:20:25.024Z,6.61
2023-02-24T07:21:30.160Z,6.67
2023-02-24T07:22:32.732Z,6.74
2023-02-24T07:23:34.224Z,6.77
2023-02-24T07:24:39.100Z,6.95
2023-02-24T07:25:43.112Z,6.93
2023-02-24T07:26:51.687Z,7.04
2023-02-24T07:27:53.295Z,7.06
2023-02-24T07:28:56.697Z,7.10
2023-02-24T07:29:59.192Z,7.08
2023-02-24T07:31:01.670Z,7.10
2023-02-24T07:32:06.572Z,6.85
2023-02-24T07:33:08.732Z,6.67
2023-02-24T07:34:15.121Z,6.54
2023-02-24T07:35:17.743Z,6.60
2023-02-24T07:36:23.159Z,6.67
2023-02-24T07:37:25.735Z,6.79
2023-02-24T07:38:27.195Z,6.57
2023-02-24T07:39:29.993Z,6.55
2023-02-24T07:40:33.351Z,6.85
2023-02-24T07:41:37.046Z,7.04
2023-02-24T07:42:42.204Z,6.52
2023-02-24T07:43:46.120Z,6.71
2023-02-24T07:44:49.302Z,6.87
2023-02-24T07:45:52.773Z,6.85
2023-02-24T07:46:56.623Z,6.87
2023-02-24T07:48:01.297Z,6.96
2023-02-24T07:49:04.121Z,7.19
2023-02-24T07:50:13.277Z,7.20
2023-02-24T07:51:19.471Z,7.28
2023-02-24T07:52:22.642Z,7.03
2023-02-24T07:53:24.278Z,6.71
2023-02-24T07:54:30.005Z,6.66
2023-02-24T07:55:36.025Z,6.71
2023-02-24T07:56:45.935Z,6.50
2023-02-24T07:57:49.810Z,6.04
2023-02-24T07:58:51.730Z,6.17
2023-02-24T07:59:54.274Z,6.34
2023-02-24T08:01:08.709Z,6.34
2023-02-24T08:02:11.335Z,6.47
2023-02-24T08:03:14.649Z,6.49
2023-02-24T08:04:18.649Z,6.38
2023-02-24T08:05:30.416Z,6.20
2023-02-24T08:06:38.038Z,6.11
2023-02-24T08:07:40.613Z,6.33
2023-02-24T08:08:58.819Z,6.24
2023-02-24T08:10:10.255Z,6.42
2023-02-24T08:11:14.873Z,6.38
2023-02-24T08:12:21.331Z,6.46
2023-02-24T08:13:25.644Z,6.29
2023-02-24T08:14:32.929Z,6.18
2023-02-24T08:15:35.609Z,6.09
2023-02-24T08:16:39.657Z,6.28
2023-02-24T08:17:42.158Z,6.08
2023-02-24T08:18:48.906Z,6.05
2023-02-24T08:20:12.797Z,5.88
2023-02-24T08:21:16.061Z,6.10
2023-02-24T08:22:21.053Z,6.29
2023-02-24T08:23:24.099Z,6.21
2023-02-24T08:24:29.897Z,6.39
2023-02-24T08:25:36.461Z,6.59
2023-02-24T08:26:44.717Z,6.68
2023-02-24T08:28:07.031Z,6.63
2023-02-24T08:29:12.335Z,6.60
2023-02-24T08:30:23.283Z,6.50
2023-02-24T08:31:26.294Z,6.51
2023-02-24T08:32:33.819Z,6.45
2023-02-24T08:33:37.381Z,6.40
2023-02-24T08:34:39.235Z,6.53
2023-02-24T08:35:44.817Z,6.79
2023-02-24T08:36:55.693Z,6.81
2023-02-24T08:38:01.778Z,6.53
2023-02-24T08:39:04.811Z,6.47
2023-02-24T08:40:29.346Z,6.26
2023-02-24T08:41:45.644Z,6.37
2023-02-24T08:42:50.014Z,6.52
2023-02-24T08:43:52.430Z,6.42
2023-02-24T08:44:58.081Z,6.22
2023-02-24T08:46:03.760Z,6.13
2023-02-24T08:47:07.508Z,6.28
2023-02-24T08:48:18.422Z,6.33
2023-02-24T08:49:24.920Z,6.50
2023-02-24T08:50:31.044Z,6.71
2023-02-24T08:51:35.739Z,6.69
2023-02-24T08:52:39.193Z,6.55
2023-02-24T08:53:41.893Z,6.31
2023-02-24T08:54:49.290Z,6.07
2023-02-24T08:55:51.895Z,6.30
2023-02-24T08:56:56.732Z,6.51
2023-02-24T08:58:01.647Z,6.22
2023-02-24T08:59:06.523Z,5.96
2023-02-24T09:00:28.082Z,6.02
2023-02-24T09:01:34.899Z,6.08
2023-02-24T09:02:40.400Z,5.71
2023-02-24T09:03:46.073Z,5.91
2023-02-24T09:04:52.286Z,5.82
2023-02-24T09:06:04.505Z,6.09
2023-02-24T09:07:15.254Z,6.06
2023-02-24T09:08:24.062Z,6.24
2023-02-24T09:09:26.737Z,6.52
2023-02-24T09:10:28.619Z,6.53
2023-02-24T09:11:31.072Z,6.85
2023-02-24T09:12:35.327Z,6.88
2023-02-24T09:13:43.056Z,6.75
2023-02-24T09:14:45.495Z,6.70
2023-02-24T09:15:48.603Z,6.40
2023-02-24T09:17:06.140Z,6.28
2023-02-24T09:18:10.567Z,6.63
2023-02-24T09:19:40.390Z,6.96
2023-02-24T09:21:16.035Z,7.12
2023-02-24T09:22:31.406Z,7.18
2023-02-24T09:23:45.977Z,7.39
2023-02-24T09:24:51.133Z,7.64
2023-02-24T09:25:54.249Z,7.44
2023-02-24T09:26:58.574Z,7.16
2023-02-24T09:28:08.280Z,7.16
2023-02-24T09:29:33.531Z,7.16
2023-02-24T09:30:38.282Z,7.53
2023-02-24T09:31:55.275Z,7.50
2023-02-24T09:33:01.273Z,7.51
2023-02-24T09:34:10.377Z,7.70
2023-02-24T09:35:14.866Z,7.65
2023-02-24T09:36:21.090Z,7.56
2023-02-24T09:37:25.299Z,7.70
2023-02-24T09:38:57.776Z,7.51
2023-02-24T09:40:33.396Z,7.48
2023-02-24T09:41:52.900Z,7.35
2023-02-24T09:42:58.261Z,7.57
2023-02-24T09:44:03.768Z,7.84
2023-02-24T09:45:11.748Z,7.71
2023-02-24T09:46:14.714Z,7.80
2023-02-24T09:47:31.032Z,7.70
2023-02-24T09:48:44.638Z,7.60
2023-02-24T09:49:56.606Z,7.58
2023-02-24T09:51:06.045Z,7.61
2023-02-24T09:52:16.799Z,7.52
2023-02-24T09:53:19.637Z,7.29
2023-02-24T09:54:24.535Z,7.23
2023-02-24T09:55:35.772Z,7.06
2023-02-24T09:56:43.716Z,6.95
2023-02-24T09:58:07.536Z,7.01
2023-02-24T09:59:20.773Z,7.14
2023-02-24T10:00:26.283Z,7.16
2023-02-24T10:01:43.235Z,7.26
2023-02-24T10:02:59.992Z,7.42
2023-02-24T10:04:20.654Z,7.40
2023-02-24T10:05:28.591Z,7.54
2023-02-24T10:06:35.473Z,7.34
2023-02-24T10:07:41.362Z,7.36
2023-02-24T10:08:49.633Z,7.47
2023-02-24T10:10:19.419Z,7.54
2023-02-24T10:11:32.855Z,7.45
2023-02-24T10:12:40.137Z,7.56
2023-02-24T10:13:50.362Z,7.92
2023-02-24T10:15:17.133Z,7.88
2023-02-24T10:16:23.984Z,8.07
2023-02-24T10:17:39.971Z,8.46
2023-02-24T10:18:48.362Z,8.17
2023-02-24T10:19:56.448Z,8.43
2023-02-24T10:21:07.398Z,8.81
2023-02-24T10:22:27.473Z,8.79
2023-02-24T10:23:45.138Z,8.42
2023-02-24T10:24:50.845Z,8.22
2023-02-24T10:25:55.334Z,8.25
2023-02-24T10:27:08.371Z,8.41
2023-02-24T10:28:25.239Z,8.75
2023-02-24T10:29:39.023Z,9.14
2023-02-24T10:30:51.283Z,9.59
2023-02-24T10:32:07.171Z,9.42
2023-02-24T10:33:25.321Z,8.86
2023-02-24T10:34:31.813Z,8.53
2023-02-24T10:35:36.696Z,8.63
2023-02-24T10:36:39.188Z,8.55
2023-02-24T10:37:42.564Z,8.67
2023-02-24T10:38:46.598Z,8.74
2023-02-24T10:39:51.891Z,8.46
2023-02-24T10:40:57.557Z,8.58
2023-02-24T10:42:15.637Z,8.17
2023-02-24T10:43:19.879Z,8.01
2023-02-24T10:44:24.839Z,8.06
2023-02-24T10:45:34.767Z,7.98
2023-02-24T10:46:42.130Z,8.17
2023-02-24T10:47:49.542Z,8.22
2023-02-24T10:49:00.387Z,8.15
2023-02-24T10:50:05.056Z,8.28
2023-02-24T10:51:19.683Z,8.01
2023-02-24T10:52:37.066Z,7.80
2023-02-24T10:53:40.836Z,7.45
2023-02-24T10:55:04.966Z,7.60
2023-02-24T10:56:41.803Z,7.67
2023-02-24T10:57:58.997Z,7.85
2023-02-24T10:59:41.883Z,7.88
2023-02-24T11:01:08.887Z,7.74
2023-02-24T11:02:29.393Z,7.68
2023-02-24T11:03:41.980Z,7.80
2023-02-24T11:04:54.342Z,7.88
2023-02-24T11:06:20.150Z,8.02
2023-02-24T11:07:24.950Z,7.90
2023-02-24T11:08:36.710Z,7.76
2023-02-24T11:09:52.446Z,7.67
2023-02-24T11:10:58.907Z,7.81
2023-02-24T11:12:24.927Z,7.90
2023-02-24T11:13:45.023Z,7.88
2023-02-24T11:15:11.688Z,7.78
2023-02-24T11:16:33.621Z,7.78
2023-02-24T11:17:37.603Z,8.04
2023-02-24T11:18:41.489Z,8.12
2023-02-24T11:19:48.192Z,8.12
2023-02-24T11:20:54.840Z,8.08
2023-02-24T11:21:59.990Z,8.01
2023-02-24T11:23:05.061Z,8.07
2023-02-24T11:24:15.529Z,8.12
2023-02-24T11:25:21.624Z,8.10
2023-02-24T11:26:28.272Z,8.21
2023-02-24T11:27:29.949Z,8.12
2023-02-24T11:28:51.176Z,8.28
2023-02-24T11:30:17.705Z,8.40
2023-02-24T11:31:32.788Z,8.34
2023-02-24T11:33:06.474Z,8.24
2023-02-24T11:34:17.153Z,8.06
2023-02-24T11:35:26.267Z,8.01
2023-02-24T11:36:37.190Z,8.16
2023-02-24T11:37:44.405Z,8.16
2023-02-24T11:38:53.711Z,8.11
2023-02-24T11:40:01.286Z,8.14
2023-02-24T11:41:10.414Z,8.17
2023-02-24T11:42:15.128Z,8.02
2023-02-24T11:43:21.865Z,8.02
2023-02-24T11:44:29.786Z,8.07
2023-02-24T11:45:37.714Z,8.18
2023-02-24T11:46:44.258Z,8.26
2023-02-24T11:47:52.789Z,8.42
2023-02-24T11:48:59.571Z,8.33
2023-02-24T11:50:17.569Z,8.28
2023-02-24T11:51:25.816Z,8.14
2023-02-24T11:52:32.631Z,8.15
2023-02-24T11:53:42.647Z,8.32
2023-02-24T11:54:50.940Z,8.27
2023-02-24T11:55:59.234Z,8.24
2023-02-24T11:57:03.806Z,8.15
2023-02-24T11:58:13.571Z,8.14
2023-02-24T11:59:21.330Z,8.04
2023-02-24T12:00:28.002Z,7.98
2023-02-24T12:01:33.668Z,8.15
2023-02-24T12:02:44.830Z,8.24
2023-02-24T12:03:57.105Z,8.27
2023-02-24T12:05:04.150Z,8.47
2023-02-24T12:06:15.457Z,8.48
2023-02-24T12:07:24.124Z,8.72
2023-02-24T12:08:33.339Z,8.52
2023-02-24T12:09:44.030Z,8.33
2023-02-24T12:10:50.494Z,8.19
2023-02-24T12:11:57.726Z,8.16
2023-02-24T12:13:08.532Z,8.00
2023-02-24T12:14:21.450Z,7.87
2023-02-24T12:15:27.882Z,7.95
2023-02-24T12:16:35.554Z,7.98
2023-02-24T12:17:44.460Z,8.27
2023-02-24T12:18:51.386Z,8.38
2023-02-24T12:20:01.556Z,8.20
2023-02-24T12:21:08.317Z,8.18
2023-02-24T12:22:15.640Z,7.92
2023-02-24T12:23:23.210Z,7.81
2023-02-24T12:24:25.893Z,7.82
2023-02-24T12:25:38.680Z,7.76
2023-02-24T12:26:53.043Z,7.74
2023-02-24T12:28:05.408Z,7.85
2023-02-24T12:29:27.893Z,7.91
2023-02-24T12:30:49.648Z,8.02
2023-02-24T12:32:01.773Z,8.09
2023-02-24T12:33:19.204Z,7.99
2023-02-24T12:34:30.323Z,8.09
2023-02-24T12:35:44.620Z,8.13
2023-02-24T12:37:17.804Z,7.89
2023-02-24T12:38:33.997Z,7.91
2023-02-24T12:39:45.137Z,8.01
2023-02-24T12:40:57.097Z,7.83
2023-02-24T12:42:11.273Z,7.98
2023-02-24T12:43:22.999Z,7.98
2023-02-24T12:44:36.194Z,8.13
2023-02-24T12:45:48.692Z,8.07
2023-02-24T12:46:59.827Z,7.93
2023-02-24T12:48:10.992Z,7.84
2023-02-24T12:49:28.331Z,7.76
2023-02-24T12:50:42.036Z,7.78
2023-02-24T12:51:54.648Z,7.82
2023-02-24T12:53:06.399Z,7.92
2023-02-24T12:54:16.711Z,7.93
2023-02-24T12:55:24.547Z,7.95
2023-02-24T12:56:35.200Z,7.82
2023-02-24T12:57:44.202Z,7.94
2023-02-24T12:58:48.893Z,8.06
2023-02-24T12:59:50.687Z,8.09
2023-02-24T13:01:06.916Z,8.05
2023-02-24T13:02:23.317Z,7.91
2023-02-24T13:03:40.520Z,8.03
2023-02-24T13:04:57.052Z,8.00
2023-02-24T13:06:07.133Z,7.91
2023-02-24T13:07:23.810Z,7.84
2023-02-24T13:08:40.434Z,7.80
2023-02-24T13:09:49.549Z,7.78
2023-02-24T13:11:04.710Z,7.96
2023-02-24T13:12:16.770Z,7.94
2023-02-24T13:13:27.052Z,7.98
2023-02-24T13:14:32.934Z,7.92
2023-02-24T13:15:34.502Z,7.84
2023-02-24T13:16:37.339Z,7.77
2023-02-24T13:17:47.936Z,7.63
2023-02-24T13:18:49.506Z,7.45
2023-02-24T13:19:55.306Z,7.41
2023-02-24T13:21:06.229Z,7.26
2023-02-24T13:22:25.527Z,7.38
2023-02-24T13:23:28.012Z,7.19
2023-02-24T13:24:30.476Z,7.20
2023-02-24T13:25:37.006Z,7.23
2023-02-24T13:26:38.646Z,7.35
2023-02-24T13:27:44.263Z,7.45
2023-02-24T13:28:45.767Z,7.51
2023-02-24T13:29:50.071Z,7.38
2023-02-24T13:30:59.222Z,7.16
2023-02-24T13:32:02.025Z,7.19
2023-02-24T13:33:07.344Z,7.10
2023-02-24T13:34:31.050Z,7.07
2023-02-24T13:35:35.513Z,6.99
2023-02-24T13:36:49.844Z,6.99
2023-02-24T13:37:55.616Z,6.90
2023-02-24T13:39:08.176Z,7.04
2023-02-24T13:40:24.356Z,7.11
2023-02-24T13:41:44.735Z,6.97
2023-02-24T13:42:59.522Z,6.70
2023-02-24T13:44:04.903Z,6.76
2023-02-24T13:45:20.293Z,6.89
2023-02-24T13:46:23.362Z,6.78
2023-02-24T13:47:42.219Z,6.82
2023-02-24T13:48:52.570Z,6.85
2023-02-24T13:50:08.900Z,6.82
2023-02-24T13:51:42.778Z,6.51
2023-02-24T13:53:02.663Z,6.49
2023-02-24T13:54:24.312Z,6.51
2023-02-24T13:55:44.102Z,6.48
2023-02-24T13:56:59.382Z,6.31
2023-02-24T13:58:29.165Z,6.35
2023-02-24T13:59:57.551Z,6.42
2023-02-24T14:01:10.604Z,6.60
2023-02-24T14:02:16.648Z,6.47
2023-02-24T14:03:20.930Z,6.53
2023-02-24T14:04:29.748Z,6.55
2023-02-24T14:05:35.734Z,6.49
2023-02-24T14:06:38.890Z,6.34
2023-02-24T14:07:41.712Z,6.44
2023-02-24T14:08:47.361Z,6.21
2023-02-24T14:09:53.925Z,6.12
2023-02-24T14:11:00.138Z,6.25
2023-02-24T14:12:07.553Z,6.48
2023-02-24T14:13:16.921Z,6.34
2023-02-24T14:14:19.822Z,6.16
2023-02-24T14:15:26.304Z,6.19
2023-02-24T14:16:33.638Z,6.26
2023-02-24T14:17:37.995Z,6.22
2023-02-24T14:18:40.435Z,6.21
2023-02-24T14:19:42.488Z,6.13
2023-02-24T14:20:45.292Z,6.22
2023-02-24T14:21:51.061Z,6.33
2023-02-24T14:22:54.864Z,6.36
2023-02-24T14:24:02.326Z,6.50
2023-02-24T14:25:09.182Z,6.34
2023-02-24T14:26:18.466Z,6.28
2023-02-24T14:27:24.475Z,6.32
2023-02-24T14:28:31.396Z,6.25
2023-02-24T14:29:43.595Z,6.17
2023-02-24T14:30:54.579Z,6.36
2023-02-24T14:31:59.357Z,6.47
2023-02-24T14:33:02.888Z,6.24
2023-02-24T14:34:08.979Z,6.14
2023-02-24T14:35:19.534Z,6.01
2023-02-24T14:36:27.094Z,6.25
2023-02-24T14:37:31.132Z,6.16
2023-02-24T14:38:36.742Z,6.18
2023-02-24T14:39:39.275Z,6.03
2023-02-24T14:40:48.429Z,6.12
2023-02-24T14:41:51.046Z,6.10
2023-02-24T14:42:57.230Z,5.95
2023-02-24T14:44:09.418Z,6.14
2023-02-24T14:45:18.462Z,6.25
2023-02-24T14:46:21.762Z,6.06
2023-02-24T14:47:27.272Z,6.09
2023-02-24T14:48:30.817Z,5.96
2023-02-24T14:49:34.854Z,5.71
2023-02-24T14:50:36.649Z,5.62
2023-02-24T14:51:41.657Z,5.63
2023-02-24T14:52:49.765Z,5.68
2023-02-24T14:53:54.951Z,5.52
2023-02-24T14:55:00.615Z,5.52
2023-02-24T14:56:06.133Z,5.48
2023-02-24T14:57:12.501Z,5.42
2023-02-24T14:58:19.630Z,5.14
2023-02-24T14:59:29.804Z,5.01